createdAt,value
2022-08-19T00:00:48.000Z,166
2022-08-19T00:02:04.000Z,166
2022-08-19T00:03:21.000Z,166
2022-08-19T00:04:37.000Z,166
2022-08-19T00:05:53.000Z,165
2022-08-19T00:07:09.000Z,169
2022-08-19T00:08:25.000Z,169
2022-08-19T00:09:41.000Z,168
2022-08-19T00:10:57.000Z,165
2022-08-19T00:12:13.000Z,164
2022-08-19T00:13:30.000Z,166
2022-08-19T00:14:46.000Z,165
2022-08-19T00:16:02.000Z,165
2022-08-19T00:17:17.000Z,163
2022-08-19T00:18:33.000Z,163
2022-08-19T00:19:49.000Z,162
2022-08-19T00:21:05.000Z,161
2022-08-19T00:22:20.000Z,163
2022-08-19T00:23:35.000Z,163
2022-08-19T00:24:52.000Z,168
2022-08-19T00:26:08.000Z,166
2022-08-19T00:27:24.000Z,166
2022-08-19T00:28:40.000Z,168
2022-08-19T00:29:57.000Z,165
2022-08-19T00:31:13.000Z,164
2022-08-19T00:32:29.000Z,163
2022-08-19T00:33:45.000Z,161
2022-08-19T00:35:02.000Z,160
2022-08-19T00:36:18.000Z,161
2022-08-19T00:37:34.000Z,158
2022-08-19T00:38:50.000Z,154
2022-08-19T00:40:06.000Z,157
2022-08-19T00:41:22.000Z,156
2022-08-19T00:42:38.000Z,154
2022-08-19T00:43:54.000Z,155
2022-08-19T00:45:10.000Z,152
2022-08-19T00:46:27.000Z,150
2022-08-19T00:47:43.000Z,155
2022-08-19T00:48:59.000Z,155
2022-08-19T00:50:15.000Z,154
2022-08-19T00:51:32.000Z,153
2022-08-19T00:52:48.000Z,154
2022-08-19T00:54:04.000Z,154
2022-08-19T00:55:20.000Z,152
2022-08-19T00:56:36.000Z,153
2022-08-19T00:57:52.000Z,153
2022-08-19T00:59:08.000Z,153
2022-08-19T01:00:24.000Z,150
2022-08-19T01:01:41.000Z,150
2022-08-19T01:02:57.000Z,154
2022-08-19T01:04:13.000Z,151
2022-08-19T01:05:29.000Z,153
2022-08-19T01:06:45.000Z,154
2022-08-19T01:08:02.000Z,152
2022-08-19T01:09:18.000Z,152
2022-08-19T01:10:34.000Z,152
2022-08-19T01:11:50.000Z,154
2022-08-19T01:13:06.000Z,153
2022-08-19T01:14:22.000Z,151
2022-08-19T01:15:38.000Z,152
2022-08-19T01:16:54.000Z,151
2022-08-19T01:18:11.000Z,153
2022-08-19T01:19:27.000Z,152
2022-08-19T01:20:43.000Z,153
2022-08-19T01:21:59.000Z,152
2022-08-19T01:23:16.000Z,153
2022-08-19T01:24:32.000Z,152
2022-08-19T01:25:48.000Z,153
2022-08-19T01:27:04.000Z,153
2022-08-19T01:28:20.000Z,151
2022-08-19T01:29:36.000Z,150
2022-08-19T01:30:52.000Z,150
2022-08-19T01:32:08.000Z,153
2022-08-19T01:33:24.000Z,153
2022-08-19T01:34:41.000Z,151
2022-08-19T01:35:57.000Z,152
2022-08-19T01:37:13.000Z,151
2022-08-19T01:38:29.000Z,153
2022-08-19T01:39:46.000Z,152
2022-08-19T01:41:02.000Z,153
2022-08-19T01:42:18.000Z,154
2022-08-19T01:43:34.000Z,152
2022-08-19T01:44:51.000Z,154
2022-08-19T01:46:06.000Z,153
2022-08-19T01:47:22.000Z,154
2022-08-19T01:48:38.000Z,156
2022-08-19T01:49:54.000Z,156
2022-08-19T01:51:11.000Z,155
2022-08-19T01:52:27.000Z,155
2022-08-19T01:53:43.000Z,158
2022-08-19T01:54:59.000Z,157
2022-08-19T01:56:16.000Z,157
2022-08-19T01:57:32.000Z,157
2022-08-19T01:58:48.000Z,157
2022-08-19T02:00:04.000Z,153
2022-08-19T02:01:21.000Z,154
2022-08-19T02:02:36.000Z,157
2022-08-19T02:03:52.000Z,156
2022-08-19T02:05:08.000Z,157
2022-08-19T02:06:25.000Z,161
2022-08-19T02:07:41.000Z,159
2022-08-19T02:08:57.000Z,161
2022-08-19T02:10:13.000Z,160
2022-08-19T02:11:29.000Z,160
2022-08-19T02:12:46.000Z,161
2022-08-19T02:14:02.000Z,162
2022-08-19T02:15:18.000Z,161
2022-08-19T02:16:34.000Z,164
2022-08-19T02:17:51.000Z,163
2022-08-19T02:19:07.000Z,164
2022-08-19T02:20:23.000Z,164
2022-08-19T02:21:38.000Z,163
2022-08-19T02:22:55.000Z,165
2022-08-19T02:24:11.000Z,166
2022-08-19T02:25:27.000Z,164
2022-08-19T02:26:43.000Z,161
2022-08-19T02:28:00.000Z,165
2022-08-19T02:29:16.000Z,163
2022-08-19T02:30:32.000Z,163
2022-08-19T02:31:48.000Z,169
2022-08-19T02:33:04.000Z,167
2022-08-19T02:34:21.000Z,167
2022-08-19T02:35:37.000Z,168
2022-08-19T02:36:53.000Z,170
2022-08-19T02:38:08.000Z,168
2022-08-19T02:39:25.000Z,170
2022-08-19T02:40:41.000Z,168
2022-08-19T02:41:57.000Z,170
2022-08-19T02:43:13.000Z,168
2022-08-19T02:44:29.000Z,166
2022-08-19T02:45:44.000Z,169
2022-08-19T02:47:00.000Z,168
2022-08-19T02:48:16.000Z,164
2022-08-19T02:49:33.000Z,167
2022-08-19T02:50:49.000Z,167
2022-08-19T02:52:05.000Z,166
2022-08-19T02:53:21.000Z,163
2022-08-19T02:54:37.000Z,166
2022-08-19T02:55:52.000Z,168
2022-08-19T02:57:08.000Z,166
2022-08-19T02:58:24.000Z,167
2022-08-19T02:59:40.000Z,169
2022-08-19T03:00:57.000Z,169
2022-08-19T03:02:13.000Z,170
2022-08-19T03:03:29.000Z,170
2022-08-19T03:04:45.000Z,169
2022-08-19T03:06:02.000Z,169
2022-08-19T03:07:18.000Z,169
2022-08-19T03:08:34.000Z,169
2022-08-19T03:09:50.000Z,168
2022-08-19T03:11:07.000Z,170
2022-08-19T03:12:22.000Z,169
2022-08-19T03:13:38.000Z,169
2022-08-19T03:14:54.000Z,170
2022-08-19T03:16:11.000Z,170
2022-08-19T03:17:27.000Z,170
2022-08-19T03:18:43.000Z,169
2022-08-19T03:19:59.000Z,169
2022-08-19T03:21:14.000Z,166
2022-08-19T03:22:30.000Z,170
2022-08-19T03:23:45.000Z,169
2022-08-19T03:25:00.000Z,170
2022-08-19T03:26:16.000Z,169
2022-08-19T03:27:33.000Z,171
2022-08-19T03:28:49.000Z,173
2022-08-19T03:30:05.000Z,170
2022-08-19T03:31:21.000Z,170
2022-08-19T03:32:38.000Z,170
2022-08-19T03:33:54.000Z,169
2022-08-19T03:35:10.000Z,169
2022-08-19T03:36:26.000Z,170
2022-08-19T03:37:43.000Z,172
2022-08-19T03:38:59.000Z,173
2022-08-19T03:40:15.000Z,171
2022-08-19T03:41:30.000Z,172
2022-08-19T03:42:47.000Z,172
2022-08-19T03:44:03.000Z,177
2022-08-19T03:45:19.000Z,177
2022-08-19T03:46:35.000Z,177
2022-08-19T03:47:51.000Z,173
2022-08-19T03:49:08.000Z,178
2022-08-19T03:50:24.000Z,180
2022-08-19T03:51:40.000Z,180
2022-08-19T03:52:56.000Z,177
2022-08-19T03:54:13.000Z,178
2022-08-19T03:55:29.000Z,180
2022-08-19T03:56:45.000Z,182
2022-08-19T03:58:00.000Z,182
2022-08-19T03:59:17.000Z,182
2022-08-19T04:00:33.000Z,183
2022-08-19T04:01:49.000Z,187
2022-08-19T04:03:05.000Z,150
2022-08-19T04:04:22.000Z,25
2022-08-19T04:05:38.000Z,26
2022-08-19T04:06:54.000Z,34
2022-08-19T04:08:10.000Z,42
2022-08-19T04:09:26.000Z,51
2022-08-19T04:10:43.000Z,60
2022-08-19T04:11:59.000Z,67
2022-08-19T04:13:15.000Z,77
2022-08-19T04:14:30.000Z,88
2022-08-19T04:15:47.000Z,96
2022-08-19T04:17:03.000Z,108
2022-08-19T04:18:19.000Z,120
2022-08-19T04:19:35.000Z,135
2022-08-19T04:20:52.000Z,148
2022-08-19T04:22:08.000Z,164
2022-08-19T04:23:24.000Z,185
2022-08-19T04:24:40.000Z,205
2022-08-19T04:25:57.000Z,230
2022-08-19T04:27:13.000Z,261
2022-08-19T04:28:29.000Z,291
2022-08-19T04:29:45.000Z,317
2022-08-19T04:31:00.000Z,344
2022-08-19T04:32:17.000Z,380
2022-08-19T04:33:33.000Z,414
2022-08-19T04:34:49.000Z,452
2022-08-19T04:36:05.000Z,494
2022-08-19T04:37:22.000Z,538
2022-08-19T04:38:38.000Z,582
2022-08-19T04:39:54.000Z,616
2022-08-19T04:41:10.000Z,664
2022-08-19T04:42:27.000Z,706
2022-08-19T04:43:43.000Z,758
2022-08-19T04:44:59.000Z,809
2022-08-19T04:46:15.000Z,861
2022-08-19T04:47:31.000Z,907
2022-08-19T04:48:47.000Z,955
2022-08-19T04:50:03.000Z,1005
2022-08-19T04:51:19.000Z,1052
2022-08-19T04:52:35.000Z,1097
2022-08-19T04:53:52.000Z,1145
2022-08-19T04:55:08.000Z,1179
2022-08-19T04:56:24.000Z,1197
2022-08-19T04:57:40.000Z,1213
2022-08-19T04:58:57.000Z,1225
2022-08-19T05:00:13.000Z,1239
2022-08-19T05:01:28.000Z,1258
2022-08-19T05:02:43.000Z,1279
2022-08-19T05:03:59.000Z,1309
2022-08-19T05:05:14.000Z,1344
2022-08-19T05:06:30.000Z,1384
2022-08-19T05:07:46.000Z,1428
2022-08-19T05:09:03.000Z,1473
2022-08-19T05:10:19.000Z,1526
2022-08-19T05:11:35.000Z,1584
2022-08-19T05:12:51.000Z,1648
2022-08-19T05:14:08.000Z,1723
2022-08-19T05:15:24.000Z,1802
2022-08-19T05:16:40.000Z,1878
2022-08-19T05:17:56.000Z,1943
2022-08-19T05:19:12.000Z,1997
2022-08-19T05:20:29.000Z,2040
2022-08-19T05:21:44.000Z,2082
2022-08-19T05:23:00.000Z,2129
2022-08-19T05:24:16.000Z,2196
2022-08-19T05:25:33.000Z,2283
2022-08-19T05:26:49.000Z,2417
2022-08-19T05:28:05.000Z,2556
2022-08-19T05:29:21.000Z,2647
2022-08-19T05:30:38.000Z,2731
2022-08-19T05:31:54.000Z,2825
2022-08-19T05:33:10.000Z,2941
2022-08-19T05:34:26.000Z,3051
2022-08-19T05:35:43.000Z,2998
2022-08-19T05:36:59.000Z,2959
2022-08-19T05:38:14.000Z,2936
2022-08-19T05:39:29.000Z,2935
2022-08-19T05:40:45.000Z,2990
2022-08-19T05:42:01.000Z,3012
2022-08-19T05:43:17.000Z,3194
2022-08-19T05:44:33.000Z,3419
2022-08-19T05:45:49.000Z,3572
2022-08-19T05:47:05.000Z,3563
2022-08-19T05:48:20.000Z,3529
2022-08-19T05:49:36.000Z,3638
2022-08-19T05:50:52.000Z,3792
2022-08-19T05:52:09.000Z,3610
2022-08-19T05:53:25.000Z,3511
2022-08-19T05:54:41.000Z,3763
2022-08-19T05:55:57.000Z,4030
2022-08-19T05:57:14.000Z,4215
2022-08-19T05:58:30.000Z,4502
2022-08-19T05:59:46.000Z,4427
2022-08-19T06:01:02.000Z,4329
2022-08-19T06:02:19.000Z,4184
2022-08-19T06:03:35.000Z,4467
2022-08-19T06:04:50.000Z,4094
2022-08-19T06:06:06.000Z,4125
2022-08-19T06:07:22.000Z,5081
2022-08-19T06:08:39.000Z,4486
2022-08-19T06:09:55.000Z,4392
2022-08-19T06:11:11.000Z,3718
2022-08-19T06:12:27.000Z,4378
2022-08-19T06:13:44.000Z,4559
2022-08-19T06:15:00.000Z,4888
2022-08-19T06:16:16.000Z,5524
2022-08-19T06:17:32.000Z,5281
2022-08-19T06:18:49.000Z,5214
2022-08-19T06:20:05.000Z,4903
2022-08-19T06:21:20.000Z,4767
2022-08-19T06:22:36.000Z,4806
2022-08-19T06:23:53.000Z,4798
2022-08-19T06:25:09.000Z,4431
2022-08-19T06:26:25.000Z,3757
2022-08-19T06:27:41.000Z,3515
2022-08-19T06:28:57.000Z,3590
2022-08-19T06:30:14.000Z,3697
2022-08-19T06:31:30.000Z,3723
2022-08-19T06:32:46.000Z,3797
2022-08-19T06:34:02.000Z,3856
2022-08-19T06:35:19.000Z,3802
2022-08-19T06:36:34.000Z,3778
2022-08-19T06:37:50.000Z,3751
2022-08-19T06:39:06.000Z,3727
2022-08-19T06:40:23.000Z,3733
2022-08-19T06:41:39.000Z,3777
2022-08-19T06:42:55.000Z,3809
2022-08-19T06:44:11.000Z,3869
2022-08-19T06:45:28.000Z,3915
2022-08-19T06:46:44.000Z,3893
2022-08-19T06:48:00.000Z,3799
2022-08-19T06:49:16.000Z,3731
2022-08-19T06:50:32.000Z,3682
2022-08-19T06:51:49.000Z,3623
2022-08-19T06:53:04.000Z,3615
2022-08-19T06:54:20.000Z,3633
2022-08-19T06:55:36.000Z,3635
2022-08-19T06:56:53.000Z,3636
2022-08-19T06:58:09.000Z,3647
2022-08-19T06:59:25.000Z,3642
2022-08-19T07:00:41.000Z,3626
2022-08-19T07:01:58.000Z,3616
2022-08-19T07:03:14.000Z,3616
2022-08-19T07:04:30.000Z,3604
2022-08-19T07:05:46.000Z,3598
2022-08-19T07:07:03.000Z,3560
2022-08-19T07:08:19.000Z,3510
2022-08-19T07:09:34.000Z,3486
2022-08-19T07:10:50.000Z,3452
2022-08-19T07:12:06.000Z,3415
2022-08-19T07:13:23.000Z,3375
2022-08-19T07:14:39.000Z,3362
2022-08-19T07:15:55.000Z,3381
2022-08-19T07:17:11.000Z,3386
2022-08-19T07:18:28.000Z,3402
2022-08-19T07:19:44.000Z,3428
2022-08-19T07:21:00.000Z,3453
2022-08-19T07:22:16.000Z,3454
2022-08-19T07:23:33.000Z,3437
2022-08-19T07:24:49.000Z,3419
2022-08-19T07:26:04.000Z,3397
2022-08-19T07:27:20.000Z,3330
2022-08-19T07:28:36.000Z,3295
2022-08-19T07:29:53.000Z,3345
2022-08-19T07:31:09.000Z,3361
2022-08-19T07:32:25.000Z,3363
2022-08-19T07:33:41.000Z,3385
2022-08-19T07:34:58.000Z,3411
2022-08-19T07:36:14.000Z,3419
2022-08-19T07:37:30.000Z,3435
2022-08-19T07:38:46.000Z,3461
2022-08-19T07:40:03.000Z,3447
2022-08-19T07:41:19.000Z,3467
2022-08-19T07:42:34.000Z,3458
2022-08-19T07:43:50.000Z,3280
2022-08-19T07:45:07.000Z,3112
2022-08-19T07:46:23.000Z,3051
2022-08-19T07:47:39.000Z,3031
2022-08-19T07:48:55.000Z,3097
2022-08-19T07:50:11.000Z,3192
2022-08-19T07:51:28.000Z,3312
2022-08-19T07:52:44.000Z,3438
2022-08-19T07:54:00.000Z,3500
2022-08-19T07:55:16.000Z,3490
2022-08-19T07:56:33.000Z,3414
2022-08-19T07:57:49.000Z,3325
2022-08-19T07:59:04.000Z,3312
2022-08-19T08:00:20.000Z,3417
2022-08-19T08:01:37.000Z,3575
2022-08-19T08:02:53.000Z,3730
2022-08-19T08:04:09.000Z,3924
2022-08-19T08:05:25.000Z,4098
2022-08-19T08:06:42.000Z,4263
2022-08-19T08:07:58.000Z,4450
2022-08-19T08:09:14.000Z,4638
2022-08-19T08:10:30.000Z,4848
2022-08-19T08:11:46.000Z,5044
2022-08-19T08:13:03.000Z,5138
2022-08-19T08:14:19.000Z,5201
2022-08-19T08:15:34.000Z,5258
2022-08-19T08:16:50.000Z,5307
2022-08-19T08:18:07.000Z,5369
2022-08-19T08:19:23.000Z,5444
2022-08-19T08:20:39.000Z,5533
2022-08-19T08:21:55.000Z,5610
2022-08-19T08:23:12.000Z,5689
2022-08-19T08:24:28.000Z,5803
2022-08-19T08:25:44.000Z,5992
2022-08-19T08:27:00.000Z,6277
2022-08-19T08:28:17.000Z,6473
2022-08-19T08:29:33.000Z,6377
2022-08-19T08:30:49.000Z,5992
2022-08-19T08:32:04.000Z,5729
2022-08-19T08:33:20.000Z,5868
2022-08-19T08:34:37.000Z,6051
2022-08-19T08:35:53.000Z,6289
2022-08-19T08:38:25.000Z,6677
2022-08-19T08:39:42.000Z,6778
2022-08-19T08:40:58.000Z,6899
2022-08-19T08:42:14.000Z,7077
2022-08-19T08:43:30.000Z,7255
2022-08-19T08:44:47.000Z,7479
2022-08-19T08:46:03.000Z,7598
2022-08-19T08:47:19.000Z,8102
2022-08-19T08:48:34.000Z,8708
2022-08-19T08:49:51.000Z,9969
2022-08-19T08:51:07.000Z,10629
2022-08-19T08:52:23.000Z,11054
2022-08-19T08:53:39.000Z,14138
2022-08-19T08:54:55.000Z,12938
2022-08-19T08:56:12.000Z,11270
2022-08-19T08:57:28.000Z,8702
2022-08-19T08:58:44.000Z,8124
2022-08-19T09:00:00.000Z,8686
2022-08-19T09:01:17.000Z,8705
2022-08-19T09:02:33.000Z,8823
2022-08-19T09:03:49.000Z,9652
2022-08-19T09:05:04.000Z,9410
2022-08-19T09:06:21.000Z,9098
2022-08-19T09:07:37.000Z,9286
2022-08-19T09:08:53.000Z,9796
2022-08-19T09:10:09.000Z,10040
2022-08-19T09:11:26.000Z,9600
2022-08-19T09:12:42.000Z,10795
2022-08-19T09:15:14.000Z,12433
2022-08-19T09:16:30.000Z,11456
2022-08-19T09:17:47.000Z,10328
2022-08-19T09:19:03.000Z,9344
2022-08-19T09:20:19.000Z,9932
2022-08-19T09:21:34.000Z,10114
2022-08-19T09:22:51.000Z,9207
2022-08-19T09:24:07.000Z,8613
2022-08-19T09:25:23.000Z,8333
2022-08-19T09:26:39.000Z,8344
2022-08-19T09:27:56.000Z,8542
2022-08-19T09:29:12.000Z,8805
2022-08-19T09:30:28.000Z,8943
2022-08-19T09:31:44.000Z,9227
2022-08-19T09:33:01.000Z,9101
2022-08-19T09:34:17.000Z,9770
2022-08-19T09:35:33.000Z,9664
2022-08-19T09:36:49.000Z,9959
2022-08-19T09:38:05.000Z,10366
2022-08-19T09:39:22.000Z,10688
2022-08-19T09:40:37.000Z,10710
2022-08-19T09:41:53.000Z,10820
2022-08-19T09:43:09.000Z,10164
2022-08-19T09:44:26.000Z,11538
2022-08-19T09:45:42.000Z,12336
2022-08-19T09:46:58.000Z,11711
2022-08-19T09:48:14.000Z,12057
2022-08-19T09:49:31.000Z,12069
2022-08-19T09:50:47.000Z,11660
2022-08-19T09:52:03.000Z,11099
2022-08-19T09:53:19.000Z,11546
2022-08-19T09:54:36.000Z,12407
2022-08-19T09:55:52.000Z,12824
2022-08-19T09:57:07.000Z,12684
2022-08-19T09:58:23.000Z,12385
2022-08-19T09:59:39.000Z,13381
2022-08-19T10:00:56.000Z,12158
2022-08-19T10:02:12.000Z,11708
2022-08-19T10:03:28.000Z,11530
2022-08-19T10:04:44.000Z,11393
2022-08-19T10:06:01.000Z,11526
2022-08-19T10:07:17.000Z,11858
2022-08-19T10:08:33.000Z,11338
2022-08-19T10:09:49.000Z,10264
2022-08-19T10:11:06.000Z,9924
2022-08-19T10:12:22.000Z,10135
2022-08-19T10:13:37.000Z,10637
2022-08-19T10:14:53.000Z,12502
2022-08-19T10:16:10.000Z,13005
2022-08-19T10:17:26.000Z,12559
2022-08-19T10:18:42.000Z,11703
2022-08-19T10:19:58.000Z,10911
2022-08-19T10:21:14.000Z,10424
2022-08-19T10:22:31.000Z,10042
2022-08-19T10:23:47.000Z,9799
2022-08-19T10:25:03.000Z,9787
2022-08-19T10:26:18.000Z,9529
2022-08-19T10:27:34.000Z,9014
2022-08-19T10:28:50.000Z,8744
2022-08-19T10:30:06.000Z,8884
2022-08-19T10:31:22.000Z,9160
2022-08-19T10:32:39.000Z,9425
2022-08-19T10:33:55.000Z,9691
2022-08-19T10:35:11.000Z,10154
2022-08-19T10:36:26.000Z,10139
2022-08-19T10:37:42.000Z,9661
2022-08-19T10:38:58.000Z,9014
2022-08-19T10:40:14.000Z,8809
2022-08-19T10:41:30.000Z,8878
2022-08-19T10:42:47.000Z,9067
2022-08-19T10:44:03.000Z,9311
2022-08-19T10:45:19.000Z,9430
2022-08-19T10:46:35.000Z,9136
2022-08-19T10:47:51.000Z,8974
2022-08-19T10:49:08.000Z,8745
2022-08-19T10:50:24.000Z,8394
2022-08-19T10:51:39.000Z,8290
2022-08-19T10:52:55.000Z,8247
2022-08-19T10:54:12.000Z,8463
2022-08-19T10:55:28.000Z,8512
2022-08-19T10:56:44.000Z,8372
2022-08-19T10:58:00.000Z,8419
2022-08-19T10:59:17.000Z,8485
2022-08-19T11:00:33.000Z,8685
2022-08-19T11:01:49.000Z,8922
2022-08-19T11:03:04.000Z,9191
2022-08-19T11:04:20.000Z,9451
2022-08-19T11:05:36.000Z,9987
2022-08-19T11:06:52.000Z,10401
2022-08-19T11:08:08.000Z,10501
2022-08-19T11:09:24.000Z,10352
2022-08-19T11:10:39.000Z,11474
2022-08-19T11:11:55.000Z,11171
2022-08-19T11:13:11.000Z,10775
2022-08-19T11:14:27.000Z,10630
2022-08-19T11:15:44.000Z,11049
2022-08-19T11:17:00.000Z,11899
2022-08-19T11:18:16.000Z,12280
2022-08-19T11:19:32.000Z,12694
2022-08-19T11:20:49.000Z,13050
2022-08-19T11:22:05.000Z,13260
2022-08-19T11:23:21.000Z,13399
2022-08-19T11:24:37.000Z,14027
2022-08-19T11:25:54.000Z,12892
2022-08-19T11:27:09.000Z,11937
2022-08-19T11:28:25.000Z,11314
2022-08-19T11:29:41.000Z,10536
2022-08-19T11:30:58.000Z,9974
2022-08-19T11:32:14.000Z,9522
2022-08-19T11:33:30.000Z,9081
2022-08-19T11:34:46.000Z,9056
2022-08-19T11:36:01.000Z,9267
2022-08-19T11:37:17.000Z,9478
2022-08-19T11:38:33.000Z,10116
2022-08-19T11:39:48.000Z,10377
2022-08-19T11:41:03.000Z,10363
2022-08-19T11:42:20.000Z,10497
2022-08-19T11:43:36.000Z,10958
2022-08-19T11:44:52.000Z,11278
2022-08-19T11:46:08.000Z,11815
2022-08-19T11:47:25.000Z,12962
2022-08-19T11:48:41.000Z,13430
2022-08-19T11:49:57.000Z,13349
2022-08-19T11:51:13.000Z,13383
2022-08-19T11:52:30.000Z,13207
2022-08-19T11:53:46.000Z,13070
2022-08-19T11:55:02.000Z,13196
2022-08-19T11:56:18.000Z,13346
2022-08-19T11:57:34.000Z,14147
2022-08-19T11:58:50.000Z,13670
2022-08-19T12:00:06.000Z,11689
2022-08-19T12:01:22.000Z,12183
2022-08-19T12:02:38.000Z,12610
2022-08-19T12:03:55.000Z,11388
2022-08-19T12:05:11.000Z,10344
2022-08-19T12:06:26.000Z,9055
2022-08-19T12:07:41.000Z,9652
2022-08-19T12:08:58.000Z,9410
2022-08-19T12:10:14.000Z,8911
2022-08-19T12:11:30.000Z,8471
2022-08-19T12:12:46.000Z,8146
2022-08-19T12:14:03.000Z,8619
2022-08-19T12:15:19.000Z,9000
2022-08-19T12:16:35.000Z,8847
2022-08-19T12:17:50.000Z,8637
2022-08-19T12:19:06.000Z,8503
2022-08-19T12:20:22.000Z,8484
2022-08-19T12:21:38.000Z,8753
2022-08-19T12:22:54.000Z,9114
2022-08-19T12:24:11.000Z,9106
2022-08-19T12:25:27.000Z,9047
2022-08-19T12:26:43.000Z,9427
2022-08-19T12:27:59.000Z,9450
2022-08-19T12:29:15.000Z,9362
2022-08-19T12:30:32.000Z,9587
2022-08-19T12:31:48.000Z,10061
2022-08-19T12:33:04.000Z,10384
2022-08-19T12:34:20.000Z,10393
2022-08-19T12:35:36.000Z,10241
2022-08-19T12:36:52.000Z,10143
2022-08-19T12:38:08.000Z,10115
2022-08-19T12:39:24.000Z,10081
2022-08-19T12:40:41.000Z,10103
2022-08-19T12:41:57.000Z,10215
2022-08-19T12:43:13.000Z,10514
2022-08-19T12:44:29.000Z,10948
2022-08-19T12:45:45.000Z,11439
2022-08-19T12:47:00.000Z,12017
2022-08-19T12:48:16.000Z,12652
2022-08-19T12:49:32.000Z,13737
2022-08-19T12:50:48.000Z,13535
2022-08-19T12:52:03.000Z,11999
2022-08-19T12:53:19.000Z,10500
2022-08-19T12:54:35.000Z,9760
2022-08-19T12:55:52.000Z,9205
2022-08-19T12:57:08.000Z,8717
2022-08-19T12:58:24.000Z,8645
2022-08-19T12:59:40.000Z,8849
2022-08-19T13:00:56.000Z,9027
2022-08-19T13:02:13.000Z,8834
2022-08-19T13:03:29.000Z,8520
2022-08-19T13:04:45.000Z,8423
2022-08-19T13:06:01.000Z,8473
2022-08-19T13:07:18.000Z,8806
2022-08-19T13:08:33.000Z,9338
2022-08-19T13:09:49.000Z,9762
2022-08-19T13:11:05.000Z,10298
2022-08-19T13:12:22.000Z,10818
2022-08-19T13:13:38.000Z,11154
2022-08-19T13:14:54.000Z,11390
2022-08-19T13:16:10.000Z,11594
2022-08-19T13:17:26.000Z,12326
2022-08-19T13:18:43.000Z,12300
2022-08-19T13:19:59.000Z,12418
2022-08-19T13:21:15.000Z,12364
2022-08-19T13:22:31.000Z,11528
2022-08-19T13:23:48.000Z,10523
2022-08-19T13:25:03.000Z,10055
2022-08-19T13:26:19.000Z,10090
2022-08-19T13:27:35.000Z,9880
2022-08-19T13:28:51.000Z,9896
2022-08-19T13:30:06.000Z,10473
2022-08-19T13:31:21.000Z,3801
2022-08-19T13:32:36.000Z,16703
2022-08-19T13:33:53.000Z,35490
2022-08-19T13:35:09.000Z,32113
2022-08-19T13:36:25.000Z,32875
2022-08-19T13:37:41.000Z,35284
2022-08-19T13:38:58.000Z,74625
2022-08-19T13:40:14.000Z,74141
2022-08-19T13:41:30.000Z,73975
2022-08-19T13:42:46.000Z,73147
2022-08-19T13:44:03.000Z,38489
2022-08-19T13:45:19.000Z,38615
2022-08-19T13:46:35.000Z,38175
2022-08-19T13:47:51.000Z,36708
2022-08-19T13:49:06.000Z,32757
2022-08-19T13:50:23.000Z,33137
2022-08-19T13:51:39.000Z,30489
2022-08-19T13:52:55.000Z,32893
2022-08-19T13:54:11.000Z,26173
2022-08-19T13:55:28.000Z,27491
2022-08-19T13:56:44.000Z,30935
2022-08-19T13:57:59.000Z,26163
2022-08-19T13:59:14.000Z,33482
2022-08-19T14:00:31.000Z,34288
2022-08-19T14:01:46.000Z,32794
2022-08-19T14:03:01.000Z,34830
2022-08-19T14:04:17.000Z,31649
2022-08-19T14:05:34.000Z,35313
2022-08-19T14:06:50.000Z,34890
2022-08-19T14:08:06.000Z,34790
2022-08-19T14:09:22.000Z,22892
2022-08-19T14:10:39.000Z,12123
2022-08-19T14:11:55.000Z,10727
2022-08-19T14:13:11.000Z,9835
2022-08-19T14:14:27.000Z,9329
2022-08-19T14:15:43.000Z,9244
2022-08-19T14:17:00.000Z,9030
2022-08-19T14:18:16.000Z,8821
2022-08-19T14:19:31.000Z,8696
2022-08-19T14:20:47.000Z,10050
2022-08-19T14:22:04.000Z,10650
2022-08-19T14:23:20.000Z,10788
2022-08-19T14:24:36.000Z,9896
2022-08-19T14:25:52.000Z,12995
2022-08-19T14:27:09.000Z,14047
2022-08-19T14:28:24.000Z,13086
2022-08-19T14:29:39.000Z,16189
2022-08-19T14:30:55.000Z,15514
2022-08-19T14:32:12.000Z,15241
2022-08-19T14:33:28.000Z,13389
2022-08-19T14:34:44.000Z,6402
2022-08-19T14:36:00.000Z,32240
2022-08-19T14:37:16.000Z,35746
2022-08-19T14:38:31.000Z,35794
2022-08-19T14:39:47.000Z,40928
2022-08-19T14:41:03.000Z,33264
2022-08-19T14:42:20.000Z,24684
2022-08-19T14:43:36.000Z,16734
2022-08-19T14:44:52.000Z,15803
2022-08-19T14:46:08.000Z,14433
2022-08-19T14:47:24.000Z,14433
2022-08-19T14:48:41.000Z,10993
2022-08-19T14:49:57.000Z,14135
2022-08-19T14:51:13.000Z,11258
2022-08-19T14:52:29.000Z,10321
2022-08-19T14:53:46.000Z,9623
2022-08-19T14:55:01.000Z,9180
2022-08-19T14:56:17.000Z,9010
2022-08-19T14:57:33.000Z,8693
2022-08-19T14:58:50.000Z,7953
2022-08-19T15:00:06.000Z,7438
2022-08-19T15:01:22.000Z,7019
2022-08-19T15:02:38.000Z,6348
2022-08-19T15:03:54.000Z,5853
2022-08-19T15:05:11.000Z,5442
2022-08-19T15:06:26.000Z,5126
2022-08-19T15:07:42.000Z,4762
2022-08-19T15:08:58.000Z,4501
2022-08-19T15:10:15.000Z,4420
2022-08-19T15:11:31.000Z,4405
2022-08-19T15:12:47.000Z,4394
2022-08-19T15:14:03.000Z,4433
2022-08-19T15:15:20.000Z,4545
2022-08-19T15:16:36.000Z,4535
2022-08-19T15:17:52.000Z,4646
2022-08-19T15:19:08.000Z,4579
2022-08-19T15:20:25.000Z,4661
2022-08-19T15:21:41.000Z,4687
2022-08-19T15:22:57.000Z,4684
2022-08-19T15:24:12.000Z,4550
2022-08-19T15:25:29.000Z,4220
2022-08-19T15:26:45.000Z,3836
2022-08-19T15:28:01.000Z,3536
2022-08-19T15:29:17.000Z,3305
2022-08-19T15:30:33.000Z,3046
2022-08-19T15:31:50.000Z,2891
2022-08-19T15:33:06.000Z,3024
2022-08-19T15:34:22.000Z,3298
2022-08-19T15:35:38.000Z,3550
2022-08-19T15:36:55.000Z,3753
2022-08-19T15:38:11.000Z,3843
2022-08-19T15:39:27.000Z,4025
2022-08-19T15:40:42.000Z,4460
2022-08-19T15:41:58.000Z,4851
2022-08-19T15:43:13.000Z,4694
2022-08-19T15:44:28.000Z,4397
2022-08-19T15:45:44.000Z,4160
2022-08-19T15:47:01.000Z,3970
2022-08-19T15:48:17.000Z,3969
2022-08-19T15:49:33.000Z,3945
2022-08-19T15:50:49.000Z,3805
2022-08-19T15:52:06.000Z,3660
2022-08-19T15:53:22.000Z,3566
2022-08-19T15:54:38.000Z,3588
2022-08-19T15:55:54.000Z,3592
2022-08-19T15:57:10.000Z,3633
2022-08-19T15:58:27.000Z,3641
2022-08-19T15:59:43.000Z,3563
2022-08-19T16:00:59.000Z,3398
2022-08-19T16:02:14.000Z,3235
2022-08-19T16:03:31.000Z,3036
2022-08-19T16:04:47.000Z,2750
2022-08-19T16:06:03.000Z,2518
2022-08-19T16:07:19.000Z,2449
2022-08-19T16:08:36.000Z,2526
2022-08-19T16:09:51.000Z,2615
2022-08-19T16:11:06.000Z,2692
2022-08-19T16:12:22.000Z,2824
2022-08-19T16:13:39.000Z,2957
2022-08-19T16:14:55.000Z,3046
2022-08-19T16:16:11.000Z,3198
2022-08-19T16:17:27.000Z,3475
2022-08-19T16:18:43.000Z,3903
2022-08-19T16:19:59.000Z,4267
2022-08-19T16:21:14.000Z,4377
2022-08-19T16:22:30.000Z,4323
2022-08-19T16:23:46.000Z,4194
2022-08-19T16:25:03.000Z,4055
2022-08-19T16:26:19.000Z,3901
2022-08-19T16:27:35.000Z,3722
2022-08-19T16:28:51.000Z,3521
2022-08-19T16:30:08.000Z,3384
2022-08-19T16:31:24.000Z,3284
2022-08-19T16:32:40.000Z,3176
2022-08-19T16:33:56.000Z,3022
2022-08-19T16:35:13.000Z,2922
2022-08-19T16:36:29.000Z,2877
2022-08-19T16:37:44.000Z,2774
2022-08-19T16:39:00.000Z,2718
2022-08-19T16:40:17.000Z,2696
2022-08-19T16:41:33.000Z,2722
2022-08-19T16:42:49.000Z,2806
2022-08-19T16:44:05.000Z,2853
2022-08-19T16:45:20.000Z,2776
2022-08-19T16:46:36.000Z,2727
2022-08-19T16:47:52.000Z,2686
2022-08-19T16:49:08.000Z,2692
2022-08-19T16:50:24.000Z,2739
2022-08-19T16:51:41.000Z,2811
2022-08-19T16:52:57.000Z,2887
2022-08-19T16:54:13.000Z,3023
2022-08-19T16:55:29.000Z,3160
2022-08-19T16:56:45.000Z,3302
2022-08-19T16:58:00.000Z,3524